sensor_id;sensor_type;location;lat;lon;timestamp;pressure;altitude;pressure_sealevel;temperature;humidity
5872;BME280;2962;51.312;7.378;2022-11-11T00:00:21;98684.44;;;6.96;100.00
5872;BME280;2962;51.312;7.378;2022-11-11T00:02:47;98684.91;;;6.98;100.00
5872;BME280;2962;51.312;7.378;2022-11-11T00:05:14;98665.41;;;6.87;100.00
5872;BME280;2962;51.312;7.378;2022-11-11T00:07:40;98684.56;;;6.91;100.00
5872;BME280;2962;51.312;7.378;2022-11-11T00:10:06;98675.16;;;6.88;100.00
5872;BME280;2962;51.312;7.378;2022-11-11T00:12:31;98678.00;;;6.92;100.00
5872;BME280;2962;51.312;7.378;2022-11-11T00:14:56;98689.00;;;6.87;100.00
5872;BME280;2962;51.312;7.378;2022-11-11T00:17:22;98684.88;;;6.89;100.00
5872;BME280;2962;51.312;7.378;2022-11-11T00:20:11;98707.97;;;6.87;100.00
5872;BME280;2962;51.312;7.378;2022-11-11T00:22:55;98721.03;;;6.84;100.00
5872;BME280;2962;51.312;7.378;2022-11-11T00:25:39;98737.13;;;6.81;100.00
5872;BME280;2962;51.312;7.378;2022-11-11T00:28:04;98730.91;;;6.80;100.00
5872;BME280;2962;51.312;7.378;2022-11-11T00:30:29;98730.41;;;6.78;100.00
5872;BME280;2962;51.312;7.378;2022-11-11T00:32:55;98730.91;;;6.80;100.00
5872;BME280;2962;51.312;7.378;2022-11-11T00:35:20;98704.88;;;6.71;100.00
5872;BME280;2962;51.312;7.378;2022-11-11T00:38:06;98724.31;;;6.73;100.00
5872;BME280;2962;51.312;7.378;2022-11-11T00:40:32;98712.78;;;6.58;100.00
5872;BME280;2962;51.312;7.378;2022-11-11T00:42:57;98722.34;;;6.65;100.00
5872;BME280;2962;51.312;7.378;2022-11-11T00:45:22;98714.53;;;6.63;100.00
5872;BME280;2962;51.312;7.378;2022-11-11T00:47:48;98700.19;;;6.54;100.00
5872;BME280;2962;51.312;7.378;2022-11-11T00:50:32;98714.38;;;6.59;100.00
5872;BME280;2962;51.312;7.378;2022-11-11T00:53:20;98696.97;;;6.52;100.00
5872;BME280;2962;51.312;7.378;2022-11-11T00:55:45;98721.69;;;6.59;100.00
5872;BME280;2962;51.312;7.378;2022-11-11T00:58:11;98710.38;;;6.57;100.00
5872;BME280;2962;51.312;7.378;2022-11-11T01:00:36;98715.63;;;6.53;100.00
5872;BME280;2962;51.312;7.378;2022-11-11T01:03:01;98716.53;;;6.49;100.00
5872;BME280;2962;51.312;7.378;2022-11-11T01:05:27;98715.91;;;6.52;100.00
5872;BME280;2962;51.312;7.378;2022-11-11T01:07:53;98721.66;;;6.50;100.00
5872;BME280;2962;51.312;7.378;2022-11-11T01:10:19;98712.84;;;6.45;100.00
5872;BME280;2962;51.312;7.378;2022-11-11T01:13:05;98710.91;;;6.36;100.00
5872;BME280;2962;51.312;7.378;2022-11-11T01:15:37;98714.28;;;6.42;100.00
5872;BME280;2962;51.312;7.378;2022-11-11T01:18:02;98723.31;;;6.38;100.00
5872;BME280;2962;51.312;7.378;2022-11-11T01:20:28;98708.31;;;6.31;100.00
5872;BME280;2962;51.312;7.378;2022-11-11T01:22:53;98718.72;;;6.38;100.00
5872;BME280;2962;51.312;7.378;2022-11-11T01:25:18;98709.16;;;6.41;100.00
5872;BME280;2962;51.312;7.378;2022-11-11T01:27:44;98710.75;;;6.42;100.00
5872;BME280;2962;51.312;7.378;2022-11-11T01:30:09;98711.88;;;6.41;100.00
5872;BME280;2962;51.312;7.378;2022-11-11T01:32:38;98716.31;;;6.36;100.00
5872;BME280;2962;51.312;7.378;2022-11-11T01:35:03;98735.13;;;6.42;100.00
5872;BME280;2962;51.312;7.378;2022-11-11T01:37:31;98724.75;;;6.35;100.00
5872;BME280;2962;51.312;7.378;2022-11-11T01:39:57;98736.84;;;6.38;100.00
5872;BME280;2962;51.312;7.378;2022-11-11T01:42:22;98745.03;;;6.46;100.00
5872;BME280;2962;51.312;7.378;2022-11-11T01:44:47;98720.19;;;6.44;100.00
5872;BME280;2962;51.312;7.378;2022-11-11T01:47:15;98731.69;;;6.50;100.00
5872;BME280;2962;51.312;7.378;2022-11-11T01:49:52;98731.97;;;6.48;100.00
5872;BME280;2962;51.312;7.378;2022-11-11T01:52:32;98718.72;;;6.38;100.00
5872;BME280;2962;51.312;7.378;2022-11-11T01:55:05;98736.59;;;6.48;100.00
5872;BME280;2962;51.312;7.378;2022-11-11T02:00:12;98733.72;;;6.44;100.00
5872;BME280;2962;51.312;7.378;2022-11-11T02:02:40;98724.94;;;6.39;100.00
5872;BME280;2962;51.312;7.378;2022-11-11T02:05:10;98733.53;;;6.41;100.00
5872;BME280;2962;51.312;7.378;2022-11-11T02:08:00;98739.31;;;6.48;100.00
5872;BME280;2962;51.312;7.378;2022-11-11T02:10:27;98723.13;;;6.34;100.00
5872;BME280;2962;51.312;7.378;2022-11-11T02:12:54;98741.66;;;6.41;100.00
5872;BME280;2962;51.312;7.378;2022-11-11T02:15:38;98724.13;;;6.38;100.00
5872;BME280;2962;51.312;7.378;2022-11-11T02:18:04;98715.50;;;6.36;100.00
5872;BME280;2962;51.312;7.378;2022-11-11T02:20:34;98719.81;;;6.37;100.00
5872;BME280;2962;51.312;7.378;2022-11-11T02:23:07;98735.13;;;6.42;100.00
5872;BME280;2962;51.312;7.378;2022-11-11T02:25:36;98724.94;;;6.39;100.00
5872;BME280;2962;51.312;7.378;2022-11-11T02:28:05;98730.41;;;6.47;100.00
5872;BME280;2962;51.312;7.378;2022-11-11T02:30:31;98732.31;;;6.47;100.00
5872;BME280;2962;51.312;7.378;2022-11-11T02:32:57;98722.88;;;6.44;100.00
5872;BME280;2962;51.312;7.378;2022-11-11T02:35:33;98727.69;;;6.47;100.00
5872;BME280;2962;51.312;7.378;2022-11-11T02:38:00;98707.06;;;6.38;100.00
5872;BME280;2962;51.312;7.378;2022-11-11T02:40:38;98717.19;;;6.46;100.00
5872;BME280;2962;51.312;7.378;2022-11-11T02:43:23;98719.69;;;6.42;100.00
5872;BME280;2962;51.312;7.378;2022-11-11T02:45:49;98716.91;;;6.33;100.00
5872;BME280;2962;51.312;7.378;2022-11-11T02:48:14;98715.84;;;6.34;100.00
5872;BME280;2962;51.312;7.378;2022-11-11T02:50:40;98730.03;;;6.40;100.00
5872;BME280;2962;51.312;7.378;2022-11-11T02:53:05;98722.84;;;6.35;100.00
5872;BME280;2962;51.312;7.378;2022-11-11T02:55:30;98722.69;;;6.41;100.00
5872;BME280;2962;51.312;7.378;2022-11-11T02:57:55;98719.69;;;6.42;100.00
5872;BME280;2962;51.312;7.378;2022-11-11T03:00:21;98725.13;;;6.42;100.00
5872;BME280;2962;51.312;7.378;2022-11-11T03:02:46;98712.81;;;6.36;100.00
5872;BME280;2962;51.312;7.378;2022-11-11T03:05:11;98728.81;;;6.46;100.00
5872;BME280;2962;51.312;7.378;2022-11-11T03:07:37;98730.06;;;6.49;100.00
5872;BME280;2962;51.312;7.378;2022-11-11T03:10:02;98730.22;;;6.44;100.00
5872;BME280;2962;51.312;7.378;2022-11-11T03:12:27;98730.22;;;6.44;100.00
5872;BME280;2962;51.312;7.378;2022-11-11T03:14:53;98726.88;;;6.47;100.00
5872;BME280;2962;51.312;7.378;2022-11-11T03:17:19;98736.47;;;6.53;100.00
5872;BME280;2962;51.312;7.378;2022-11-11T03:20:06;98721.28;;;6.43;100.00
5872;BME280;2962;51.312;7.378;2022-11-11T03:23:11;98725.91;;;6.43;100.00
5872;BME280;2962;51.312;7.378;2022-11-11T03:25:42;98720.88;;;6.50;100.00
5872;BME280;2962;51.312;7.378;2022-11-11T03:28:16;98727.50;;;6.44;100.00
5872;BME280;2962;51.312;7.378;2022-11-11T03:30:46;98732.31;;;6.47;100.00
5872;BME280;2962;51.312;7.378;2022-11-11T03:33:12;98724.47;;;6.45;100.00
5872;BME280;2962;51.312;7.378;2022-11-11T03:35:38;98725.13;;;6.42;100.00
5872;BME280;2962;51.312;7.378;2022-11-11T03:38:05;98726.88;;;6.47;100.00
5872;BME280;2962;51.312;7.378;2022-11-11T03:40:45;98718.41;;;6.40;100.00
5872;BME280;2962;51.312;7.378;2022-11-11T03:43:12;98729.81;;;6.59;100.00
5872;BME280;2962;51.312;7.378;2022-11-11T03:45:38;98722.88;;;6.44;100.00
5872;BME280;2962;51.312;7.378;2022-11-11T03:48:03;98731.13;;;6.39;100.00
5872;BME280;2962;51.312;7.378;2022-11-11T03:50:29;98725.72;;;6.39;100.00
5872;BME280;2962;51.312;7.378;2022-11-11T03:52:55;98722.59;;;6.46;100.00
5872;BME280;2962;51.312;7.378;2022-11-11T03:55:20;98707.06;;;6.38;100.00
5872;BME280;2962;51.312;7.378;2022-11-11T03:57:45;98693.69;;;6.32;100.00
5872;BME280;2962;51.312;7.378;2022-11-11T04:00:16;98697.38;;;6.36;100.00
5872;BME280;2962;51.312;7.378;2022-11-11T04:02:42;98708.06;;;6.42;100.00
5872;BME280;2962;51.312;7.378;2022-11-11T04:05:26;98714.53;;;6.32;100.00
5872;BME280;2962;51.312;7.378;2022-11-11T04:08:12;98711.66;;;6.28;100.00
5872;BME280;2962;51.312;7.378;2022-11-11T04:11:07;98718.59;;;6.21;100.00
5872;BME280;2962;51.312;7.378;2022-11-11T04:13:34;98720.09;;;6.27;100.00
5872;BME280;2962;51.312;7.378;2022-11-11T04:16:18;98716.22;;;6.19;100.00
5872;BME280;2962;51.312;7.378;2022-11-11T04:18:43;98721.91;;;6.18;100.00
5872;BME280;2962;51.312;7.378;2022-11-11T04:21:27;98714.78;;;6.22;100.00
5872;BME280;2962;51.312;7.378;2022-11-11T04:24:16;98715.56;;;6.22;100.00
5872;BME280;2962;51.312;7.378;2022-11-11T04:27:04;98722.09;;;6.21;100.00
5872;BME280;2962;51.312;7.378;2022-11-11T04:29:30;98714.13;;;6.16;100.00
5872;BME280;2962;51.312;7.378;2022-11-11T04:32:05;98729.59;;;6.24;100.00
5872;BME280;2962;51.312;7.378;2022-11-11T04:34:57;98727.03;;;6.19;100.00
5872;BME280;2962;51.312;7.378;2022-11-11T04:37:24;98712.16;;;6.30;100.00
5872;BME280;2962;51.312;7.378;2022-11-11T04:39:50;98724.19;;;6.24;100.00
5872;BME280;2962;51.312;7.378;2022-11-11T04:42:34;98709.19;;;6.18;100.00
5872;BME280;2962;51.312;7.378;2022-11-11T04:45:00;98727.38;;;6.26;100.00
5872;BME280;2962;51.312;7.378;2022-11-11T04:48:01;98728.81;;;6.24;100.00
5872;BME280;2962;51.312;7.378;2022-11-11T04:50:30;98714.13;;;6.16;100.00
5872;BME280;2962;51.312;7.378;2022-11-11T04:52:55;98720.19;;;6.22;100.00
5872;BME280;2962;51.312;7.378;2022-11-11T04:55:20;98734.03;;;6.20;100.00
5872;BME280;2962;51.312;7.378;2022-11-11T04:58:04;98723.34;;;6.15;100.00
5872;BME280;2962;51.312;7.378;2022-11-11T05:00:30;98730.03;;;6.18;100.00
5872;BME280;2962;51.312;7.378;2022-11-11T05:02:56;98740.91;;;6.26;100.00
5872;BME280;2962;51.312;7.378;2022-11-11T05:08:49;98728.50;;;6.25;100.00
5872;BME280;2962;51.312;7.378;2022-11-11T05:11:27;98732.69;;;6.31;100.00
5872;BME280;2962;51.312;7.378;2022-11-11T05:13:54;98727.38;;;6.26;100.00
5872;BME280;2962;51.312;7.378;2022-11-11T05:16:43;98732.78;;;6.26;100.00
5872;BME280;2962;51.312;7.378;2022-11-11T05:19:28;98718.84;;;6.10;100.00
5872;BME280;2962;51.312;7.378;2022-11-11T05:24:51;98729.28;;;6.26;100.00
5872;BME280;2962;51.312;7.378;2022-11-11T05:27:37;98725.59;;;6.22;100.00
5872;BME280;2962;51.312;7.378;2022-11-11T05:30:04;98730.22;;;6.21;100.00
5872;BME280;2962;51.312;7.378;2022-11-11T05:32:30;98725.88;;;6.11;100.00
5872;BME280;2962;51.312;7.378;2022-11-11T05:34:55;98727.84;;;6.20;100.00
5872;BME280;2962;51.312;7.378;2022-11-11T05:37:21;98726.84;;;6.16;100.00
5872;BME280;2962;51.312;7.378;2022-11-11T05:39:46;98734.84;;;6.21;100.00
5872;BME280;2962;51.312;7.378;2022-11-11T05:42:12;98733.53;;;6.18;100.00
5872;BME280;2962;51.312;7.378;2022-11-11T05:44:37;98746.44;;;6.21;100.00
5872;BME280;2962;51.312;7.378;2022-11-11T05:47:03;98740.38;;;6.16;100.00
5872;BME280;2962;51.312;7.378;2022-11-11T05:49:29;98728.84;;;6.10;100.00
5872;BME280;2962;51.312;7.378;2022-11-11T05:51:54;98729.47;;;6.07;100.00
5872;BME280;2962;51.312;7.378;2022-11-11T05:54:21;98732.69;;;6.09;100.00
5872;BME280;2962;51.312;7.378;2022-11-11T05:56:46;98744.06;;;6.20;100.00
5872;BME280;2962;51.312;7.378;2022-11-11T05:59:12;98726.53;;;6.17;100.00
5872;BME280;2962;51.312;7.378;2022-11-11T06:01:37;98729.75;;;6.19;100.00
5872;BME280;2962;51.312;7.378;2022-11-11T06:04:04;98734.66;;;6.17;100.00
5872;BME280;2962;51.312;7.378;2022-11-11T06:06:30;98741.66;;;6.18;100.00
5872;BME280;2962;51.312;7.378;2022-11-11T06:08:56;98737.34;;;6.17;100.00
5872;BME280;2962;51.312;7.378;2022-11-11T06:11:22;98742.63;;;6.22;100.00
5872;BME280;2962;51.312;7.378;2022-11-11T06:13:48;98745.66;;;6.21;100.00
5872;BME280;2962;51.312;7.378;2022-11-11T06:16:13;98733.09;;;6.25;100.00
5872;BME280;2962;51.312;7.378;2022-11-11T06:18:38;98729.59;;;6.24;100.00
5872;BME280;2962;51.312;7.378;2022-11-11T06:21:04;98742.91;;;6.34;100.00
5872;BME280;2962;51.312;7.378;2022-11-11T06:23:29;98745.16;;;6.41;100.00
5872;BME280;2962;51.312;7.378;2022-11-11T06:25:55;98741.19;;;6.70;100.00
5872;BME280;2962;51.312;7.378;2022-11-11T06:28:44;98753.66;;;6.79;100.00
5872;BME280;2962;51.312;7.378;2022-11-11T06:31:13;98759.75;;;6.85;100.00
5872;BME280;2962;51.312;7.378;2022-11-11T06:33:39;98740.50;;;6.64;100.00
5872;BME280;2962;51.312;7.378;2022-11-11T06:36:05;98780.38;;;6.72;100.00
5872;BME280;2962;51.312;7.378;2022-11-11T06:38:31;98782.09;;;6.68;100.00
5872;BME280;2962;51.312;7.378;2022-11-11T06:40:56;98770.53;;;6.76;100.00
5872;BME280;2962;51.312;7.378;2022-11-11T06:43:22;98775.22;;;6.84;100.00
5872;BME280;2962;51.312;7.378;2022-11-11T06:45:51;98761.09;;;6.65;100.00
5872;BME280;2962;51.312;7.378;2022-11-11T06:48:18;98779.09;;;6.70;100.00
5872;BME280;2962;51.312;7.378;2022-11-11T06:50:43;98772.53;;;6.62;100.00
5872;BME280;2962;51.312;7.378;2022-11-11T06:53:11;98796.03;;;6.75;100.00
5872;BME280;2962;51.312;7.378;2022-11-11T06:55:37;98784.72;;;6.73;100.00
5872;BME280;2962;51.312;7.378;2022-11-11T06:58:06;98786.66;;;6.81;100.00
5872;BME280;2962;51.312;7.378;2022-11-11T07:00:32;98793.19;;;6.80;100.00
5872;BME280;2962;51.312;7.378;2022-11-11T07:02:57;98783.84;;;6.64;100.00
5872;BME280;2962;51.312;7.378;2022-11-11T07:05:23;98799.66;;;6.71;100.00
5872;BME280;2962;51.312;7.378;2022-11-11T07:07:48;98803.78;;;6.68;100.00
5872;BME280;2962;51.312;7.378;2022-11-11T07:10:14;98796.59;;;6.64;100.00
5872;BME280;2962;51.312;7.378;2022-11-11T07:12:40;98796.84;;;6.53;100.00
5872;BME280;2962;51.312;7.378;2022-11-11T07:15:06;98798.19;;;6.65;100.00
5872;BME280;2962;51.312;7.378;2022-11-11T07:17:33;98814.31;;;6.70;100.00
5872;BME280;2962;51.312;7.378;2022-11-11T07:19:58;98805.50;;;6.64;100.00
5872;BME280;2962;51.312;7.378;2022-11-11T07:22:23;98800.69;;;6.61;100.00
5872;BME280;2962;51.312;7.378;2022-11-11T07:24:49;98820.75;;;6.82;100.00
5872;BME280;2962;51.312;7.378;2022-11-11T07:27:14;98820.34;;;6.89;100.00
5872;BME280;2962;51.312;7.378;2022-11-11T07:29:39;98821.00;;;6.95;100.00
5872;BME280;2962;51.312;7.378;2022-11-11T07:32:05;98822.25;;;6.89;100.00
5872;BME280;2962;51.312;7.378;2022-11-11T07:34:30;98829.63;;;6.97;100.00
5872;BME280;2962;51.312;7.378;2022-11-11T07:36:55;98825.22;;;7.09;100.00
5872;BME280;2962;51.312;7.378;2022-11-11T07:39:21;98827.78;;;7.15;100.00
5872;BME280;2962;51.312;7.378;2022-11-11T07:41:46;98821.16;;;6.98;100.00
5872;BME280;2962;51.312;7.378;2022-11-11T07:44:11;98837.94;;;7.00;100.00
5872;BME280;2962;51.312;7.378;2022-11-11T07:46:36;98837.13;;;7.00;100.00
5872;BME280;2962;51.312;7.378;2022-11-11T07:49:02;98845.56;;;6.98;100.00
5872;BME280;2962;51.312;7.378;2022-11-11T07:51:27;98843.63;;;6.99;100.00
5872;BME280;2962;51.312;7.378;2022-11-11T07:53:52;98839.34;;;6.98;100.00
5872;BME280;2962;51.312;7.378;2022-11-11T07:56:17;98836.78;;;6.93;100.00
5872;BME280;2962;51.312;7.378;2022-11-11T07:58:43;98842.56;;;7.00;100.00
5872;BME280;2962;51.312;7.378;2022-11-11T08:01:08;98833.91;;;6.98;100.00
5872;BME280;2962;51.312;7.378;2022-11-11T08:03:33;98829.63;;;6.97;100.00
5872;BME280;2962;51.312;7.378;2022-11-11T08:06:01;98824.69;;;6.99;100.00
5872;BME280;2962;51.312;7.378;2022-11-11T08:08:27;98811.31;;;7.02;100.00
5872;BME280;2962;51.312;7.378;2022-11-11T08:10:53;98831.59;;;7.14;100.00
5872;BME280;2962;51.312;7.378;2022-11-11T08:13:18;98815.88;;;7.24;100.00
5872;BME280;2962;51.312;7.378;2022-11-11T08:16:02;98827.91;;;7.41;100.00
5872;BME280;2962;51.312;7.378;2022-11-11T08:18:30;98827.28;;;7.44;100.00
5872;BME280;2962;51.312;7.378;2022-11-11T08:20:56;98841.03;;;7.56;100.00
5872;BME280;2962;51.312;7.378;2022-11-11T08:23:22;98824.75;;;7.56;100.00
5872;BME280;2962;51.312;7.378;2022-11-11T08:25:57;98835.78;;;7.59;100.00
5872;BME280;2962;51.312;7.378;2022-11-11T08:28:22;98836.78;;;7.72;100.00
5872;BME280;2962;51.312;7.378;2022-11-11T08:30:48;98842.25;;;7.90;100.00
5872;BME280;2962;51.312;7.378;2022-11-11T08:33:13;98838.91;;;7.93;100.00
5872;BME280;2962;51.312;7.378;2022-11-11T08:35:38;98836.53;;;8.00;100.00
5872;BME280;2962;51.312;7.378;2022-11-11T08:38:04;98847.88;;;8.11;100.00
5872;BME280;2962;51.312;7.378;2022-11-11T08:40:29;98857.31;;;8.13;100.00
5872;BME280;2962;51.312;7.378;2022-11-11T08:42:55;98841.50;;;8.32;100.00
5872;BME280;2962;51.312;7.378;2022-11-11T08:45:21;98849.22;;;8.39;100.00
5872;BME280;2962;51.312;7.378;2022-11-11T08:47:47;98839.16;;;8.40;100.00
5872;BME280;2962;51.312;7.378;2022-11-11T08:50:12;98845.69;;;8.47;100.00
5872;BME280;2962;51.312;7.378;2022-11-11T08:52:38;98842.94;;;8.65;100.00
5872;BME280;2962;51.312;7.378;2022-11-11T08:55:09;98847.91;;;8.89;100.00
5872;BME280;2962;51.312;7.378;2022-11-11T08:57:34;98842.28;;;8.94;100.00
5872;BME280;2962;51.312;7.378;2022-11-11T08:59:59;98832.03;;;9.08;100.00
5872;BME280;2962;51.312;7.378;2022-11-11T09:02:25;98851.22;;;9.03;100.00
5872;BME280;2962;51.312;7.378;2022-11-11T09:04:50;98850.09;;;9.04;100.00
5872;BME280;2962;51.312;7.378;2022-11-11T09:07:15;98844.97;;;9.02;100.00
5872;BME280;2962;51.312;7.378;2022-11-11T09:09:40;98847.84;;;9.15;100.00
5872;BME280;2962;51.312;7.378;2022-11-11T09:12:06;98846.34;;;9.26;100.00
5872;BME280;2962;51.312;7.378;2022-11-11T09:14:31;98846.69;;;9.24;100.00
5872;BME280;2962;51.312;7.378;2022-11-11T09:16:56;98838.59;;;9.45;100.00
5872;BME280;2962;51.312;7.378;2022-11-11T09:19:21;98841.16;;;9.50;100.00
5872;BME280;2962;51.312;7.378;2022-11-11T09:21:47;98847.44;;;9.72;100.00
5872;BME280;2962;51.312;7.378;2022-11-11T09:24:12;98855.38;;;9.86;100.00
5872;BME280;2962;51.312;7.378;2022-11-11T09:26:37;98849.81;;;10.03;100.00
5872;BME280;2962;51.312;7.378;2022-11-11T09:29:03;98846.44;;;10.06;100.00
5872;BME280;2962;51.312;7.378;2022-11-11T09:31:28;98841.75;;;10.15;100.00
5872;BME280;2962;51.312;7.378;2022-11-11T09:33:53;98842.06;;;10.14;100.00
5872;BME280;2962;51.312;7.378;2022-11-11T09:36:19;98842.31;;;10.30;100.00
5872;BME280;2962;51.312;7.378;2022-11-11T09:38:45;98848.03;;;10.37;100.00
5872;BME280;2962;51.312;7.378;2022-11-11T09:44:00;98835.38;;;10.53;100.00
5872;BME280;2962;51.312;7.378;2022-11-11T09:51:58;98836.03;;;11.04;100.00
5872;BME280;2962;51.312;7.378;2022-11-11T09:54:36;98843.81;;;11.27;100.00
5872;BME280;2962;51.312;7.378;2022-11-11T09:57:11;98848.13;;;11.28;100.00
5872;BME280;2962;51.312;7.378;2022-11-11T09:59:50;98862.16;;;11.63;100.00
5872;BME280;2962;51.312;7.378;2022-11-11T10:02:33;98856.81;;;11.54;100.00
5872;BME280;2962;51.312;7.378;2022-11-11T10:05:07;98863.19;;;11.58;100.00
5872;BME280;2962;51.312;7.378;2022-11-11T10:07:39;98855.56;;;11.52;100.00
5872;BME280;2962;51.312;7.378;2022-11-11T10:10:11;98861.25;;;11.59;100.00
5872;BME280;2962;51.312;7.378;2022-11-11T10:12:45;98859.78;;;11.61;100.00
5872;BME280;2962;51.312;7.378;2022-11-11T10:15:13;98855.47;;;11.72;100.00
5872;BME280;2962;51.312;7.378;2022-11-11T10:20:15;98869.75;;;12.43;100.00
5872;BME280;2962;51.312;7.378;2022-11-11T10:22:43;98871.38;;;12.32;100.00
5872;BME280;2962;51.312;7.378;2022-11-11T10:27:40;98862.16;;;12.64;100.00
5872;BME280;2962;51.312;7.378;2022-11-11T10:30:21;98867.09;;;12.87;100.00
5872;BME280;2962;51.312;7.378;2022-11-11T10:32:56;98860.34;;;12.97;100.00
5872;BME280;2962;51.312;7.378;2022-11-11T10:35:25;98870.16;;;13.41;100.00
5872;BME280;2962;51.312;7.378;2022-11-11T10:38:20;98867.53;;;13.61;100.00
5872;BME280;2962;51.312;7.378;2022-11-11T10:40:47;98879.59;;;13.76;100.00
5872;BME280;2962;51.312;7.378;2022-11-11T10:43:24;98886.31;;;13.94;100.00
5872;BME280;2962;51.312;7.378;2022-11-11T10:48:27;98886.09;;;14.03;100.00
5872;BME280;2962;51.312;7.378;2022-11-11T10:50:56;98886.56;;;14.40;100.00
5872;BME280;2962;51.312;7.378;2022-11-11T10:56:33;98890.75;;;14.88;100.00
5872;BME280;2962;51.312;7.378;2022-11-11T10:59:08;98898.91;;;14.65;100.00
5872;BME280;2962;51.312;7.378;2022-11-11T11:01:40;98900.16;;;14.87;100.00
5872;BME280;2962;51.312;7.378;2022-11-11T11:04:11;98896.06;;;15.20;100.00
5872;BME280;2962;51.312;7.378;2022-11-11T11:06:41;98899.00;;;15.08;100.00
5872;BME280;2962;51.312;7.378;2022-11-11T11:09:14;98899.72;;;15.05;100.00
5872;BME280;2962;51.312;7.378;2022-11-11T11:14:19;98900.72;;;15.16;100.00
5872;BME280;2962;51.312;7.378;2022-11-11T11:16:49;98907.31;;;14.92;100.00
5872;BME280;2962;51.312;7.378;2022-11-11T11:19:20;98896.66;;;14.90;100.00
5872;BME280;2962;51.312;7.378;2022-11-11T11:21:55;98901.88;;;15.15;100.00
5872;BME280;2962;51.312;7.378;2022-11-11T11:24:24;98897.06;;;15.31;100.00
5872;BME280;2962;51.312;7.378;2022-11-11T11:26:53;98890.00;;;15.73;100.00
5872;BME280;2962;51.312;7.378;2022-11-11T11:29:36;98888.56;;;15.82;100.00
5872;BME280;2962;51.312;7.378;2022-11-11T11:32:29;98886.22;;;15.38;100.00
5872;BME280;2962;51.312;7.378;2022-11-11T11:34:55;98873.34;;;15.00;100.00
5872;BME280;2962;51.312;7.378;2022-11-11T11:37:23;98874.00;;;14.55;100.00
5872;BME280;2962;51.312;7.378;2022-11-11T11:39:58;98865.22;;;14.30;100.00
5872;BME280;2962;51.312;7.378;2022-11-11T11:42:34;98877.88;;;14.03;100.00
5872;BME280;2962;51.312;7.378;2022-11-11T11:45:19;98875.91;;;13.84;100.00
5872;BME280;2962;51.312;7.378;2022-11-11T11:48:04;98881.38;;;13.84;100.00
5872;BME280;2962;51.312;7.378;2022-11-11T11:50:45;98873.31;;;14.07;100.00
5872;BME280;2962;51.312;7.378;2022-11-11T12:01:25;98864.06;;;14.31;100.00
5872;BME280;2962;51.312;7.378;2022-11-11T12:07:03;98868.03;;;13.82;100.00
5872;BME280;2962;51.312;7.378;2022-11-11T12:09:53;98858.50;;;13.76;100.00
5872;BME280;2962;51.312;7.378;2022-11-11T12:12:44;98865.63;;;13.97;100.00
5872;BME280;2962;51.312;7.378;2022-11-11T12:15:26;98866.16;;;13.86;100.00
5872;BME280;2962;51.312;7.378;2022-11-11T12:18:17;98865.81;;;14.04;100.00
5872;BME280;2962;51.312;7.378;2022-11-11T12:20:51;98852.88;;;14.04;100.00
5872;BME280;2962;51.312;7.378;2022-11-11T12:23:48;98857.97;;;14.22;100.00
5872;BME280;2962;51.312;7.378;2022-11-11T12:26:32;98852.34;;;14.14;100.00
5872;BME280;2962;51.312;7.378;2022-11-11T12:32:18;98847.88;;;14.61;100.00
5872;BME280;2962;51.312;7.378;2022-11-11T12:37:32;98848.34;;;14.47;100.00
5872;BME280;2962;51.312;7.378;2022-11-11T12:45:42;98845.81;;;14.03;100.00
5872;BME280;2962;51.312;7.378;2022-11-11T12:51:25;98851.00;;;13.57;100.00
5872;BME280;2962;51.312;7.378;2022-11-11T12:54:16;98850.34;;;13.48;100.00
5872;BME280;2962;51.312;7.378;2022-11-11T12:56:55;98850.34;;;13.80;100.00
5872;BME280;2962;51.312;7.378;2022-11-11T13:05:15;98846.81;;;14.30;100.00
5872;BME280;2962;51.312;7.378;2022-11-11T13:08:16;98844.31;;;14.60;100.00
5872;BME280;2962;51.312;7.378;2022-11-11T13:11:06;98845.00;;;14.54;100.00
5872;BME280;2962;51.312;7.378;2022-11-11T13:13:44;98839.78;;;14.68;100.00
5872;BME280;2962;51.312;7.378;2022-11-11T13:16:22;98836.97;;;15.26;100.00
5872;BME280;2962;51.312;7.378;2022-11-11T13:18:57;98840.72;;;15.64;100.00
5872;BME280;2962;51.312;7.378;2022-11-11T13:21:30;98844.13;;;15.77;100.00
5872;BME280;2962;51.312;7.378;2022-11-11T13:23:58;98843.84;;;15.17;100.00
5872;BME280;2962;51.312;7.378;2022-11-11T13:26:40;98837.59;;;15.39;100.00
5872;BME280;2962;51.312;7.378;2022-11-11T13:32:13;98844.38;;;15.45;100.00
5872;BME280;2962;51.312;7.378;2022-11-11T13:34:40;98844.75;;;14.82;100.00
5872;BME280;2962;51.312;7.378;2022-11-11T13:37:14;98839.09;;;14.36;100.00
5872;BME280;2962;51.312;7.378;2022-11-11T13:39:47;98847.59;;;14.31;100.00
5872;BME280;2962;51.312;7.378;2022-11-11T13:42:20;98853.00;;;13.92;100.00
5872;BME280;2962;51.312;7.378;2022-11-11T13:44:52;98843.91;;;13.88;100.00
5872;BME280;2962;51.312;7.378;2022-11-11T13:47:21;98841.13;;;14.04;100.00
5872;BME280;2962;51.312;7.378;2022-11-11T13:49:55;98841.06;;;14.00;100.00
5872;BME280;2962;51.312;7.378;2022-11-11T13:52:24;98842.09;;;14.11;100.00
5872;BME280;2962;51.312;7.378;2022-11-11T13:55:00;98840.72;;;13.86;100.00
5872;BME280;2962;51.312;7.378;2022-11-11T13:57:27;98829.59;;;13.63;100.00
5872;BME280;2962;51.312;7.378;2022-11-11T14:00:02;98841.63;;;13.58;100.00
5872;BME280;2962;51.312;7.378;2022-11-11T14:02:31;98842.69;;;13.38;100.00
5872;BME280;2962;51.312;7.378;2022-11-11T14:10:09;98839.63;;;13.11;100.00
5872;BME280;2962;51.312;7.378;2022-11-11T14:12:37;98841.84;;;13.22;100.00
5872;BME280;2962;51.312;7.378;2022-11-11T14:15:04;98839.59;;;13.55;100.00
5872;BME280;2962;51.312;7.378;2022-11-11T14:17:33;98840.75;;;13.38;100.00
5872;BME280;2962;51.312;7.378;2022-11-11T14:19:58;98844.38;;;13.14;100.00
5872;BME280;2962;51.312;7.378;2022-11-11T14:22:44;98830.78;;;13.02;100.00
5872;BME280;2962;51.312;7.378;2022-11-11T14:25:19;98842.31;;;13.24;100.00
5872;BME280;2962;51.312;7.378;2022-11-11T14:27:44;98843.69;;;13.17;100.00
5872;BME280;2962;51.312;7.378;2022-11-11T14:30:26;98847.84;;;13.11;100.00
5872;BME280;2962;51.312;7.378;2022-11-11T14:33:00;98845.28;;;13.18;100.00
5872;BME280;2962;51.312;7.378;2022-11-11T14:35:35;98848.72;;;13.15;100.00
5872;BME280;2962;51.312;7.378;2022-11-11T14:38:19;98851.19;;;13.64;100.00
5872;BME280;2962;51.312;7.378;2022-11-11T14:40:46;98844.69;;;13.88;100.00
5872;BME280;2962;51.312;7.378;2022-11-11T14:43:40;98851.28;;;14.19;100.00
5872;BME280;2962;51.312;7.378;2022-11-11T14:46:10;98851.63;;;14.37;100.00